sensor_id;sensor_type;location;lat;lon;timestamp;P1;durP1;ratioP1;P2;durP2;ratioP2
7573;SDS011;3828;48.922;9.116;2023-06-04T00:01:43;0.70;;;0.70;;
7573;SDS011;3828;48.922;9.116;2023-06-04T00:04:11;0.60;;;0.60;;
7573;SDS011;3828;48.922;9.116;2023-06-04T00:06:38;0.70;;;0.70;;
7573;SDS011;3828;48.922;9.116;2023-06-04T00:09:05;0.73;;;0.73;;
7573;SDS011;3828;48.922;9.116;2023-06-04T00:11:32;0.63;;;0.63;;
7573;SDS011;3828;48.922;9.116;2023-06-04T00:14:00;0.70;;;0.70;;
7573;SDS011;3828;48.922;9.116;2023-06-04T00:16:27;0.70;;;0.70;;
7573;SDS011;3828;48.922;9.116;2023-06-04T00:18:55;0.87;;;0.87;;
7573;SDS011;3828;48.922;9.116;2023-06-04T00:21:22;0.70;;;0.70;;
7573;SDS011;3828;48.922;9.116;2023-06-04T00:23:49;0.80;;;0.80;;
7573;SDS011;3828;48.922;9.116;2023-06-04T00:26:16;0.50;;;0.50;;
7573;SDS011;3828;48.922;9.116;2023-06-04T00:28:43;0.80;;;0.80;;
7573;SDS011;3828;48.922;9.116;2023-06-04T00:31:10;0.70;;;0.70;;
7573;SDS011;3828;48.922;9.116;2023-06-04T00:33:37;0.60;;;0.60;;
7573;SDS011;3828;48.922;9.116;2023-06-04T00:36:06;0.70;;;0.70;;
7573;SDS011;3828;48.922;9.116;2023-06-04T00:38:33;0.77;;;0.77;;
7573;SDS011;3828;48.922;9.116;2023-06-04T00:41:00;0.60;;;0.60;;
7573;SDS011;3828;48.922;9.116;2023-06-04T00:43:27;0.70;;;0.70;;
7573;SDS011;3828;48.922;9.116;2023-06-04T00:45:56;0.60;;;0.60;;
7573;SDS011;3828;48.922;9.116;2023-06-04T00:48:23;0.80;;;0.80;;
7573;SDS011;3828;48.922;9.116;2023-06-04T00:50:52;0.70;;;0.70;;
7573;SDS011;3828;48.922;9.116;2023-06-04T00:53:21;0.80;;;0.80;;
7573;SDS011;3828;48.922;9.116;2023-06-04T00:55:50;0.70;;;0.70;;
7573;SDS011;3828;48.922;9.116;2023-06-04T00:58:17;1.30;;;1.30;;
7573;SDS011;3828;48.922;9.116;2023-06-04T01:00:45;0.70;;;0.70;;
7573;SDS011;3828;48.922;9.116;2023-06-04T01:03:13;0.60;;;0.60;;
7573;SDS011;3828;48.922;9.116;2023-06-04T01:05:43;0.80;;;0.80;;
7573;SDS011;3828;48.922;9.116;2023-06-04T01:08:17;0.67;;;0.67;;
7573;SDS011;3828;48.922;9.116;2023-06-04T01:10:51;0.60;;;0.60;;
7573;SDS011;3828;48.922;9.116;2023-06-04T01:13:20;0.90;;;0.90;;
7573;SDS011;3828;48.922;9.116;2023-06-04T01:15:48;0.80;;;0.80;;
7573;SDS011;3828;48.922;9.116;2023-06-04T01:18:15;0.70;;;0.70;;
7573;SDS011;3828;48.922;9.116;2023-06-04T01:20:52;0.70;;;0.70;;
7573;SDS011;3828;48.922;9.116;2023-06-04T01:23:25;0.80;;;0.80;;
7573;SDS011;3828;48.922;9.116;2023-06-04T01:26:01;0.70;;;0.70;;
7573;SDS011;3828;48.922;9.116;2023-06-04T01:28:28;0.80;;;0.80;;
7573;SDS011;3828;48.922;9.116;2023-06-04T01:30:56;0.70;;;0.70;;
7573;SDS011;3828;48.922;9.116;2023-06-04T01:33:24;0.77;;;0.77;;
7573;SDS011;3828;48.922;9.116;2023-06-04T01:35:51;0.70;;;0.70;;
7573;SDS011;3828;48.922;9.116;2023-06-04T01:38:19;0.70;;;0.70;;
7573;SDS011;3828;48.922;9.116;2023-06-04T01:40:46;0.70;;;0.70;;
7573;SDS011;3828;48.922;9.116;2023-06-04T01:43:14;0.80;;;0.80;;
7573;SDS011;3828;48.922;9.116;2023-06-04T01:45:41;0.70;;;0.70;;
7573;SDS011;3828;48.922;9.116;2023-06-04T01:48:08;0.70;;;0.70;;
7573;SDS011;3828;48.922;9.116;2023-06-04T01:50:35;1.00;;;1.00;;
7573;SDS011;3828;48.922;9.116;2023-06-04T01:53:02;0.70;;;0.70;;
7573;SDS011;3828;48.922;9.116;2023-06-04T01:55:29;0.80;;;0.80;;
7573;SDS011;3828;48.922;9.116;2023-06-04T01:57:58;0.90;;;0.90;;
7573;SDS011;3828;48.922;9.116;2023-06-04T02:00:27;0.80;;;0.80;;
7573;SDS011;3828;48.922;9.116;2023-06-04T02:02:53;0.80;;;0.80;;
7573;SDS011;3828;48.922;9.116;2023-06-04T02:05:21;0.70;;;0.70;;
7573;SDS011;3828;48.922;9.116;2023-06-04T02:07:48;0.70;;;0.70;;
7573;SDS011;3828;48.922;9.116;2023-06-04T02:10:17;0.80;;;0.80;;
7573;SDS011;3828;48.922;9.116;2023-06-04T02:12:54;0.80;;;0.80;;
7573;SDS011;3828;48.922;9.116;2023-06-04T02:15:23;0.70;;;0.70;;
7573;SDS011;3828;48.922;9.116;2023-06-04T02:17:53;0.90;;;0.90;;
7573;SDS011;3828;48.922;9.116;2023-06-04T02:20:23;0.70;;;0.70;;
7573;SDS011;3828;48.922;9.116;2023-06-04T02:22:50;0.80;;;0.80;;
7573;SDS011;3828;48.922;9.116;2023-06-04T02:25:17;0.90;;;0.90;;
7573;SDS011;3828;48.922;9.116;2023-06-04T02:27:44;0.80;;;0.80;;
7573;SDS011;3828;48.922;9.116;2023-06-04T02:30:11;0.70;;;0.70;;
7573;SDS011;3828;48.922;9.116;2023-06-04T02:32:38;0.80;;;0.80;;
7573;SDS011;3828;48.922;9.116;2023-06-04T02:35:07;0.73;;;0.73;;
7573;SDS011;3828;48.922;9.116;2023-06-04T02:37:34;0.80;;;0.80;;
7573;SDS011;3828;48.922;9.116;2023-06-04T02:40:01;0.73;;;0.73;;
7573;SDS011;3828;48.922;9.116;2023-06-04T02:42:29;0.70;;;0.70;;
7573;SDS011;3828;48.922;9.116;2023-06-04T02:44:56;0.80;;;0.80;;
7573;SDS011;3828;48.922;9.116;2023-06-04T02:47:23;1.00;;;1.00;;
7573;SDS011;3828;48.922;9.116;2023-06-04T02:49:50;0.70;;;0.70;;
7573;SDS011;3828;48.922;9.116;2023-06-04T02:52:18;0.97;;;0.97;;
7573;SDS011;3828;48.922;9.116;2023-06-04T02:54:47;0.70;;;0.70;;
7573;SDS011;3828;48.922;9.116;2023-06-04T02:57:14;0.70;;;0.70;;
7573;SDS011;3828;48.922;9.116;2023-06-04T02:59:41;1.00;;;1.00;;
7573;SDS011;3828;48.922;9.116;2023-06-04T03:02:08;1.07;;;1.07;;
7573;SDS011;3828;48.922;9.116;2023-06-04T03:04:36;0.70;;;0.70;;
7573;SDS011;3828;48.922;9.116;2023-06-04T03:07:03;0.90;;;0.90;;
7573;SDS011;3828;48.922;9.116;2023-06-04T03:09:31;0.90;;;0.90;;
7573;SDS011;3828;48.922;9.116;2023-06-04T03:11:59;1.00;;;1.00;;
7573;SDS011;3828;48.922;9.116;2023-06-04T03:14:26;0.90;;;0.90;;
7573;SDS011;3828;48.922;9.116;2023-06-04T03:16:57;0.90;;;0.90;;
7573;SDS011;3828;48.922;9.116;2023-06-04T03:19:26;0.73;;;0.73;;
7573;SDS011;3828;48.922;9.116;2023-06-04T03:21:53;0.80;;;0.80;;
7573;SDS011;3828;48.922;9.116;2023-06-04T03:24:21;0.77;;;0.77;;
7573;SDS011;3828;48.922;9.116;2023-06-04T03:26:50;0.80;;;0.80;;
7573;SDS011;3828;48.922;9.116;2023-06-04T03:29:17;0.70;;;0.70;;
7573;SDS011;3828;48.922;9.116;2023-06-04T03:31:44;0.80;;;0.80;;
7573;SDS011;3828;48.922;9.116;2023-06-04T03:34:11;0.73;;;0.73;;
7573;SDS011;3828;48.922;9.116;2023-06-04T03:36:38;0.70;;;0.70;;
7573;SDS011;3828;48.922;9.116;2023-06-04T03:39:05;0.73;;;0.73;;
7573;SDS011;3828;48.922;9.116;2023-06-04T03:41:32;0.70;;;0.70;;
7573;SDS011;3828;48.922;9.116;2023-06-04T03:44:00;0.70;;;0.70;;
7573;SDS011;3828;48.922;9.116;2023-06-04T03:46:27;0.90;;;0.90;;
7573;SDS011;3828;48.922;9.116;2023-06-04T03:48:58;0.80;;;0.80;;
7573;SDS011;3828;48.922;9.116;2023-06-04T03:51:25;0.70;;;0.70;;
7573;SDS011;3828;48.922;9.116;2023-06-04T03:53:52;0.83;;;0.83;;
7573;SDS011;3828;48.922;9.116;2023-06-04T03:56:20;0.80;;;0.80;;
7573;SDS011;3828;48.922;9.116;2023-06-04T03:58:47;0.80;;;0.80;;
7573;SDS011;3828;48.922;9.116;2023-06-04T04:01:16;0.80;;;0.80;;
7573;SDS011;3828;48.922;9.116;2023-06-04T04:03:43;0.80;;;0.80;;
7573;SDS011;3828;48.922;9.116;2023-06-04T04:06:13;0.80;;;0.80;;
7573;SDS011;3828;48.922;9.116;2023-06-04T04:08:40;1.10;;;1.10;;
7573;SDS011;3828;48.922;9.116;2023-06-04T04:11:09;0.80;;;0.80;;
7573;SDS011;3828;48.922;9.116;2023-06-04T04:13:36;0.63;;;0.63;;
7573;SDS011;3828;48.922;9.116;2023-06-04T04:16:03;0.70;;;0.70;;
7573;SDS011;3828;48.922;9.116;2023-06-04T04:18:33;0.97;;;0.97;;
7573;SDS011;3828;48.922;9.116;2023-06-04T04:21:00;1.00;;;1.00;;
7573;SDS011;3828;48.922;9.116;2023-06-04T04:23:27;0.70;;;0.70;;
7573;SDS011;3828;48.922;9.116;2023-06-04T04:25:54;0.90;;;0.90;;
7573;SDS011;3828;48.922;9.116;2023-06-04T04:28:23;0.90;;;0.90;;
7573;SDS011;3828;48.922;9.116;2023-06-04T04:30:53;0.80;;;0.80;;
7573;SDS011;3828;48.922;9.116;2023-06-04T04:33:21;0.80;;;0.80;;
7573;SDS011;3828;48.922;9.116;2023-06-04T04:35:51;0.80;;;0.80;;
7573;SDS011;3828;48.922;9.116;2023-06-04T04:38:18;0.90;;;0.90;;
7573;SDS011;3828;48.922;9.116;2023-06-04T04:40:48;0.80;;;0.80;;
7573;SDS011;3828;48.922;9.116;2023-06-04T04:43:17;0.70;;;0.70;;
7573;SDS011;3828;48.922;9.116;2023-06-04T04:45:44;0.80;;;0.80;;
7573;SDS011;3828;48.922;9.116;2023-06-04T04:48:11;0.90;;;0.90;;
7573;SDS011;3828;48.922;9.116;2023-06-04T04:50:38;0.70;;;0.70;;
7573;SDS011;3828;48.922;9.116;2023-06-04T04:53:07;0.70;;;0.70;;
7573;SDS011;3828;48.922;9.116;2023-06-04T04:55:33;0.80;;;0.80;;
7573;SDS011;3828;48.922;9.116;2023-06-04T04:58:00;0.73;;;0.73;;
7573;SDS011;3828;48.922;9.116;2023-06-04T05:00:28;0.70;;;0.70;;
7573;SDS011;3828;48.922;9.116;2023-06-04T05:02:55;1.10;;;1.10;;
7573;SDS011;3828;48.922;9.116;2023-06-04T05:05:22;0.77;;;0.77;;
7573;SDS011;3828;48.922;9.116;2023-06-04T05:07:49;0.80;;;0.80;;
7573;SDS011;3828;48.922;9.116;2023-06-04T05:10:17;0.90;;;0.90;;
7573;SDS011;3828;48.922;9.116;2023-06-04T05:12:50;0.70;;;0.70;;
7573;SDS011;3828;48.922;9.116;2023-06-04T05:15:17;0.70;;;0.70;;
7573;SDS011;3828;48.922;9.116;2023-06-04T05:17:45;0.90;;;0.90;;
7573;SDS011;3828;48.922;9.116;2023-06-04T05:20:12;0.60;;;0.60;;
7573;SDS011;3828;48.922;9.116;2023-06-04T05:22:40;1.10;;;1.10;;
7573;SDS011;3828;48.922;9.116;2023-06-04T05:25:08;0.80;;;0.80;;
7573;SDS011;3828;48.922;9.116;2023-06-04T05:27:37;0.90;;;0.90;;
7573;SDS011;3828;48.922;9.116;2023-06-04T05:30:04;0.80;;;0.80;;
7573;SDS011;3828;48.922;9.116;2023-06-04T05:32:32;0.70;;;0.70;;
7573;SDS011;3828;48.922;9.116;2023-06-04T05:35:01;0.70;;;0.70;;
7573;SDS011;3828;48.922;9.116;2023-06-04T05:37:29;0.70;;;0.70;;
7573;SDS011;3828;48.922;9.116;2023-06-04T05:39:59;0.70;;;0.70;;
7573;SDS011;3828;48.922;9.116;2023-06-04T05:42:26;0.83;;;0.83;;
7573;SDS011;3828;48.922;9.116;2023-06-04T05:44:54;0.80;;;0.80;;
7573;SDS011;3828;48.922;9.116;2023-06-04T05:47:21;0.80;;;0.80;;
7573;SDS011;3828;48.922;9.116;2023-06-04T05:49:48;0.70;;;0.70;;
7573;SDS011;3828;48.922;9.116;2023-06-04T05:52:15;0.77;;;0.77;;
7573;SDS011;3828;48.922;9.116;2023-06-04T05:54:42;0.80;;;0.80;;
7573;SDS011;3828;48.922;9.116;2023-06-04T05:57:10;0.70;;;0.70;;
7573;SDS011;3828;48.922;9.116;2023-06-04T05:59:37;0.73;;;0.73;;
7573;SDS011;3828;48.922;9.116;2023-06-04T06:02:05;0.77;;;0.77;;
7573;SDS011;3828;48.922;9.116;2023-06-04T06:04:32;1.10;;;1.10;;
7573;SDS011;3828;48.922;9.116;2023-06-04T06:06:59;0.70;;;0.70;;
7573;SDS011;3828;48.922;9.116;2023-06-04T06:09:27;0.77;;;0.77;;
7573;SDS011;3828;48.922;9.116;2023-06-04T06:11:54;0.70;;;0.70;;
7573;SDS011;3828;48.922;9.116;2023-06-04T06:14:21;0.77;;;0.77;;
7573;SDS011;3828;48.922;9.116;2023-06-04T06:16:48;0.60;;;0.60;;
7573;SDS011;3828;48.922;9.116;2023-06-04T06:19:16;0.70;;;0.70;;
7573;SDS011;3828;48.922;9.116;2023-06-04T06:21:43;0.60;;;0.60;;
7573;SDS011;3828;48.922;9.116;2023-06-04T06:24:10;0.67;;;0.67;;
7573;SDS011;3828;48.922;9.116;2023-06-04T06:26:37;0.70;;;0.70;;
7573;SDS011;3828;48.922;9.116;2023-06-04T06:29:05;0.60;;;0.60;;
7573;SDS011;3828;48.922;9.116;2023-06-04T06:31:32;0.60;;;0.60;;
7573;SDS011;3828;48.922;9.116;2023-06-04T06:33:59;0.77;;;0.77;;
7573;SDS011;3828;48.922;9.116;2023-06-04T06:36:27;0.63;;;0.63;;
7573;SDS011;3828;48.922;9.116;2023-06-04T06:38:54;0.70;;;0.70;;
7573;SDS011;3828;48.922;9.116;2023-06-04T06:41:20;0.70;;;0.70;;
7573;SDS011;3828;48.922;9.116;2023-06-04T06:43:47;0.60;;;0.60;;
7573;SDS011;3828;48.922;9.116;2023-06-04T06:46:15;0.60;;;0.60;;
7573;SDS011;3828;48.922;9.116;2023-06-04T06:48:42;0.80;;;0.80;;
7573;SDS011;3828;48.922;9.116;2023-06-04T06:51:10;0.57;;;0.57;;
7573;SDS011;3828;48.922;9.116;2023-06-04T06:53:39;0.60;;;0.60;;
7573;SDS011;3828;48.922;9.116;2023-06-04T06:56:05;0.60;;;0.60;;
7573;SDS011;3828;48.922;9.116;2023-06-04T06:58:32;0.60;;;0.60;;
7573;SDS011;3828;48.922;9.116;2023-06-04T07:00:59;0.63;;;0.63;;
7573;SDS011;3828;48.922;9.116;2023-06-04T07:03:26;0.60;;;0.60;;
7573;SDS011;3828;48.922;9.116;2023-06-04T07:05:53;0.60;;;0.60;;
7573;SDS011;3828;48.922;9.116;2023-06-04T07:08:21;0.60;;;0.60;;
7573;SDS011;3828;48.922;9.116;2023-06-04T07:10:49;0.73;;;0.73;;
7573;SDS011;3828;48.922;9.116;2023-06-04T07:13:16;0.50;;;0.50;;
7573;SDS011;3828;48.922;9.116;2023-06-04T07:15:43;0.60;;;0.60;;
7573;SDS011;3828;48.922;9.116;2023-06-04T07:18:10;0.60;;;0.60;;
7573;SDS011;3828;48.922;9.116;2023-06-04T07:20:36;0.60;;;0.60;;
7573;SDS011;3828;48.922;9.116;2023-06-04T07:23:04;0.50;;;0.50;;
7573;SDS011;3828;48.922;9.116;2023-06-04T07:25:32;0.60;;;0.60;;
7573;SDS011;3828;48.922;9.116;2023-06-04T07:28:00;0.50;;;0.50;;
7573;SDS011;3828;48.922;9.116;2023-06-04T07:30:29;0.50;;;0.50;;
7573;SDS011;3828;48.922;9.116;2023-06-04T07:32:56;0.50;;;0.50;;
7573;SDS011;3828;48.922;9.116;2023-06-04T07:35:23;0.50;;;0.50;;
7573;SDS011;3828;48.922;9.116;2023-06-04T07:37:51;0.50;;;0.50;;
7573;SDS011;3828;48.922;9.116;2023-06-04T07:40:18;0.50;;;0.50;;
7573;SDS011;3828;48.922;9.116;2023-06-04T07:42:45;0.40;;;0.40;;
7573;SDS011;3828;48.922;9.116;2023-06-04T07:45:14;0.57;;;0.57;;
7573;SDS011;3828;48.922;9.116;2023-06-04T07:47:41;0.50;;;0.50;;
7573;SDS011;3828;48.922;9.116;2023-06-04T07:50:08;0.60;;;0.60;;
7573;SDS011;3828;48.922;9.116;2023-06-04T07:52:35;0.50;;;0.50;;
7573;SDS011;3828;48.922;9.116;2023-06-04T07:55:02;0.47;;;0.47;;
7573;SDS011;3828;48.922;9.116;2023-06-04T07:57:30;0.50;;;0.50;;
7573;SDS011;3828;48.922;9.116;2023-06-04T07:59:56;0.50;;;0.50;;
7573;SDS011;3828;48.922;9.116;2023-06-04T08:02:25;0.50;;;0.50;;
7573;SDS011;3828;48.922;9.116;2023-06-04T08:04:52;0.67;;;0.67;;
7573;SDS011;3828;48.922;9.116;2023-06-04T08:07:19;0.50;;;0.50;;
7573;SDS011;3828;48.922;9.116;2023-06-04T08:09:46;0.60;;;0.60;;
7573;SDS011;3828;48.922;9.116;2023-06-04T08:12:14;0.50;;;0.50;;
7573;SDS011;3828;48.922;9.116;2023-06-04T08:14:41;0.63;;;0.63;;
7573;SDS011;3828;48.922;9.116;2023-06-04T08:17:08;0.50;;;0.50;;
7573;SDS011;3828;48.922;9.116;2023-06-04T08:19:37;0.70;;;0.70;;
7573;SDS011;3828;48.922;9.116;2023-06-04T08:22:03;0.40;;;0.40;;
7573;SDS011;3828;48.922;9.116;2023-06-04T08:24:31;0.50;;;0.50;;
7573;SDS011;3828;48.922;9.116;2023-06-04T08:26:58;0.40;;;0.40;;
7573;SDS011;3828;48.922;9.116;2023-06-04T08:29:25;0.40;;;0.40;;
7573;SDS011;3828;48.922;9.116;2023-06-04T08:31:52;0.40;;;0.40;;
7573;SDS011;3828;48.922;9.116;2023-06-04T08:34:19;0.40;;;0.40;;
7573;SDS011;3828;48.922;9.116;2023-06-04T08:36:47;0.40;;;0.40;;
7573;SDS011;3828;48.922;9.116;2023-06-04T08:39:14;0.40;;;0.40;;
7573;SDS011;3828;48.922;9.116;2023-06-04T08:41:42;0.30;;;0.30;;
7573;SDS011;3828;48.922;9.116;2023-06-04T08:44:10;0.40;;;0.40;;
7573;SDS011;3828;48.922;9.116;2023-06-04T08:46:38;0.30;;;0.30;;
7573;SDS011;3828;48.922;9.116;2023-06-04T08:49:05;0.30;;;0.30;;
7573;SDS011;3828;48.922;9.116;2023-06-04T08:51:34;0.40;;;0.40;;
7573;SDS011;3828;48.922;9.116;2023-06-04T08:54:07;0.30;;;0.30;;
7573;SDS011;3828;48.922;9.116;2023-06-04T08:56:34;0.40;;;0.40;;
7573;SDS011;3828;48.922;9.116;2023-06-04T08:59:02;0.40;;;0.40;;
7573;SDS011;3828;48.922;9.116;2023-06-04T09:01:31;0.40;;;0.40;;
7573;SDS011;3828;48.922;9.116;2023-06-04T09:03:58;0.30;;;0.30;;
7573;SDS011;3828;48.922;9.116;2023-06-04T09:06:27;0.43;;;0.43;;
7573;SDS011;3828;48.922;9.116;2023-06-04T09:08:56;0.30;;;0.30;;
7573;SDS011;3828;48.922;9.116;2023-06-04T09:11:27;0.60;;;0.60;;
7573;SDS011;3828;48.922;9.116;2023-06-04T09:13:59;0.20;;;0.20;;
7573;SDS011;3828;48.922;9.116;2023-06-04T09:16:29;0.50;;;0.50;;
7573;SDS011;3828;48.922;9.116;2023-06-04T09:19:01;0.30;;;0.30;;
7573;SDS011;3828;48.922;9.116;2023-06-04T09:21:29;0.50;;;0.50;;
7573;SDS011;3828;48.922;9.116;2023-06-04T09:23:57;0.40;;;0.40;;
7573;SDS011;3828;48.922;9.116;2023-06-04T09:26:25;0.37;;;0.37;;
7573;SDS011;3828;48.922;9.116;2023-06-04T09:28:52;0.30;;;0.30;;
7573;SDS011;3828;48.922;9.116;2023-06-04T09:31:23;0.60;;;0.60;;
7573;SDS011;3828;48.922;9.116;2023-06-04T09:33:51;0.47;;;0.47;;
7573;SDS011;3828;48.922;9.116;2023-06-04T09:36:19;0.60;;;0.60;;
7573;SDS011;3828;48.922;9.116;2023-06-04T09:38:46;0.50;;;0.50;;
7573;SDS011;3828;48.922;9.116;2023-06-04T09:41:13;0.30;;;0.30;;
7573;SDS011;3828;48.922;9.116;2023-06-04T09:43:42;0.50;;;0.50;;
7573;SDS011;3828;48.922;9.116;2023-06-04T09:46:10;0.20;;;0.20;;
7573;SDS011;3828;48.922;9.116;2023-06-04T09:48:37;0.40;;;0.40;;
7573;SDS011;3828;48.922;9.116;2023-06-04T09:51:08;0.20;;;0.20;;
7573;SDS011;3828;48.922;9.116;2023-06-04T09:53:35;0.40;;;0.40;;
7573;SDS011;3828;48.922;9.116;2023-06-04T09:56:03;0.30;;;0.30;;
7573;SDS011;3828;48.922;9.116;2023-06-04T09:58:31;0.30;;;0.30;;
7573;SDS011;3828;48.922;9.116;2023-06-04T10:01:00;0.37;;;0.37;;
7573;SDS011;3828;48.922;9.116;2023-06-04T10:03:30;0.20;;;0.20;;
7573;SDS011;3828;48.922;9.116;2023-06-04T10:05:58;0.30;;;0.30;;
7573;SDS011;3828;48.922;9.116;2023-06-04T10:08:26;0.20;;;0.20;;
7573;SDS011;3828;48.922;9.116;2023-06-04T10:10:55;0.30;;;0.30;;
7573;SDS011;3828;48.922;9.116;2023-06-04T10:13:26;0.40;;;0.40;;
7573;SDS011;3828;48.922;9.116;2023-06-04T10:15:54;0.30;;;0.30;;
7573;SDS011;3828;48.922;9.116;2023-06-04T10:18:24;0.30;;;0.30;;
7573;SDS011;3828;48.922;9.116;2023-06-04T10:20:54;0.20;;;0.20;;
7573;SDS011;3828;48.922;9.116;2023-06-04T10:23:22;0.33;;;0.33;;
7573;SDS011;3828;48.922;9.116;2023-06-04T10:25:50;0.50;;;0.50;;
7573;SDS011;3828;48.922;9.116;2023-06-04T10:28:19;0.20;;;0.20;;
7573;SDS011;3828;48.922;9.116;2023-06-04T10:30:46;0.30;;;0.30;;
7573;SDS011;3828;48.922;9.116;2023-06-04T10:33:15;0.20;;;0.20;;
7573;SDS011;3828;48.922;9.116;2023-06-04T10:35:44;0.30;;;0.30;;
7573;SDS011;3828;48.922;9.116;2023-06-04T10:38:11;0.30;;;0.30;;
7573;SDS011;3828;48.922;9.116;2023-06-04T10:40:41;0.30;;;0.30;;
7573;SDS011;3828;48.922;9.116;2023-06-04T10:43:09;0.30;;;0.30;;
7573;SDS011;3828;48.922;9.116;2023-06-04T10:45:38;0.23;;;0.23;;
7573;SDS011;3828;48.922;9.116;2023-06-04T10:48:06;0.27;;;0.27;;
7573;SDS011;3828;48.922;9.116;2023-06-04T10:50:34;0.20;;;0.20;;
7573;SDS011;3828;48.922;9.116;2023-06-04T10:53:14;0.30;;;0.30;;
7573;SDS011;3828;48.922;9.116;2023-06-04T10:55:43;0.20;;;0.20;;
7573;SDS011;3828;48.922;9.116;2023-06-04T10:58:10;0.20;;;0.20;;
7573;SDS011;3828;48.922;9.116;2023-06-04T11:00:37;0.20;;;0.20;;
7573;SDS011;3828;48.922;9.116;2023-06-04T11:03:05;0.20;;;0.20;;
7573;SDS011;3828;48.922;9.116;2023-06-04T11:05:33;0.30;;;0.30;;
7573;SDS011;3828;48.922;9.116;2023-06-04T11:08:01;0.30;;;0.30;;
7573;SDS011;3828;48.922;9.116;2023-06-04T11:10:32;0.30;;;0.30;;
7573;SDS011;3828;48.922;9.116;2023-06-04T11:13:00;0.30;;;0.30;;
7573;SDS011;3828;48.922;9.116;2023-06-04T11:15:36;0.30;;;0.30;;
7573;SDS011;3828;48.922;9.116;2023-06-04T11:18:04;0.20;;;0.20;;
7573;SDS011;3828;48.922;9.116;2023-06-04T11:20:34;0.30;;;0.30;;
7573;SDS011;3828;48.922;9.116;2023-06-04T11:23:10;0.50;;;0.50;;
7573;SDS011;3828;48.922;9.116;2023-06-04T11:25:54;0.37;;;0.37;;
7573;SDS011;3828;48.922;9.116;2023-06-04T11:28:23;0.10;;;0.10;;
7573;SDS011;3828;48.922;9.116;2023-06-04T11:30:56;0.20;;;0.20;;
7573;SDS011;3828;48.922;9.116;2023-06-04T11:33:24;0.33;;;0.33;;
7573;SDS011;3828;48.922;9.116;2023-06-04T11:35:51;0.47;;;0.47;;
7573;SDS011;3828;48.922;9.116;2023-06-04T11:38:18;0.30;;;0.30;;
7573;SDS011;3828;48.922;9.116;2023-06-04T11:40:55;0.20;;;0.20;;
7573;SDS011;3828;48.922;9.116;2023-06-04T11:43:23;0.30;;;0.30;;
7573;SDS011;3828;48.922;9.116;2023-06-04T11:45:50;0.27;;;0.27;;
7573;SDS011;3828;48.922;9.116;2023-06-04T11:48:17;0.10;;;0.10;;
7573;SDS011;3828;48.922;9.116;2023-06-04T11:50:44;0.20;;;0.20;;
7573;SDS011;3828;48.922;9.116;2023-06-04T11:53:12;0.20;;;0.20;;
7573;SDS011;3828;48.922;9.116;2023-06-04T11:55:38;0.20;;;0.20;;
7573;SDS011;3828;48.922;9.116;2023-06-04T11:58:07;0.40;;;0.40;;
7573;SDS011;3828;48.922;9.116;2023-06-04T12:00:35;0.30;;;0.30;;
7573;SDS011;3828;48.922;9.116;2023-06-04T12:03:02;0.10;;;0.10;;
7573;SDS011;3828;48.922;9.116;2023-06-04T12:05:30;0.37;;;0.37;;
7573;SDS011;3828;48.922;9.116;2023-06-04T12:08:03;0.70;;;0.70;;
7573;SDS011;3828;48.922;9.116;2023-06-04T12:10:36;0.10;;;0.10;;
7573;SDS011;3828;48.922;9.116;2023-06-04T12:13:05;0.50;;;0.50;;
7573;SDS011;3828;48.922;9.116;2023-06-04T12:15:34;0.20;;;0.20;;
7573;SDS011;3828;48.922;9.116;2023-06-04T12:18:01;0.17;;;0.17;;
7573;SDS011;3828;48.922;9.116;2023-06-04T12:20:32;0.10;;;0.10;;
7573;SDS011;3828;48.922;9.116;2023-06-04T12:23:03;0.20;;;0.20;;
7573;SDS011;3828;48.922;9.116;2023-06-04T12:25:30;0.10;;;0.10;;
7573;SDS011;3828;48.922;9.116;2023-06-04T12:27:57;0.13;;;0.13;;
7573;SDS011;3828;48.922;9.116;2023-06-04T12:30:35;0.20;;;0.20;;
7573;SDS011;3828;48.922;9.116;2023-06-04T12:33:03;0.47;;;0.47;;
7573;SDS011;3828;48.922;9.116;2023-06-04T12:35:29;0.37;;;0.37;;
7573;SDS011;3828;48.922;9.116;2023-06-04T12:37:56;0.40;;;0.40;;
7573;SDS011;3828;48.922;9.116;2023-06-04T12:40:23;0.20;;;0.20;;
7573;SDS011;3828;48.922;9.116;2023-06-04T12:42:50;0.20;;;0.20;;
7573;SDS011;3828;48.922;9.116;2023-06-04T12:45:17;0.30;;;0.30;;
7573;SDS011;3828;48.922;9.116;2023-06-04T12:47:45;0.20;;;0.20;;
7573;SDS011;3828;48.922;9.116;2023-06-04T12:50:12;0.20;;;0.20;;
7573;SDS011;3828;48.922;9.116;2023-06-04T12:52:39;0.10;;;0.10;;
7573;SDS011;3828;48.922;9.116;2023-06-04T12:55:07;0.20;;;0.20;;
7573;SDS011;3828;48.922;9.116;2023-06-04T12:57:34;0.30;;;0.30;;
7573;SDS011;3828;48.922;9.116;2023-06-04T13:00:01;0.17;;;0.17;;
7573;SDS011;3828;48.922;9.116;2023-06-04T13:02:29;0.47;;;0.47;;
7573;SDS011;3828;48.922;9.116;2023-06-04T13:04:58;0.30;;;0.30;;
7573;SDS011;3828;48.922;9.116;2023-06-04T13:07:24;0.30;;;0.30;;
7573;SDS011;3828;48.922;9.116;2023-06-04T13:09:51;0.40;;;0.40;;
7573;SDS011;3828;48.922;9.116;2023-06-04T13:12:18;0.30;;;0.30;;
7573;SDS011;3828;48.922;9.116;2023-06-04T13:14:45;0.20;;;0.20;;
7573;SDS011;3828;48.922;9.116;2023-06-04T13:17:12;0.20;;;0.20;;
7573;SDS011;3828;48.922;9.116;2023-06-04T13:19:40;0.20;;;0.20;;
7573;SDS011;3828;48.922;9.116;2023-06-04T13:22:08;0.30;;;0.30;;
7573;SDS011;3828;48.922;9.116;2023-06-04T13:24:35;0.20;;;0.20;;
7573;SDS011;3828;48.922;9.116;2023-06-04T13:27:02;0.30;;;0.30;;
7573;SDS011;3828;48.922;9.116;2023-06-04T13:29:29;0.60;;;0.60;;
7573;SDS011;3828;48.922;9.116;2023-06-04T13:31:58;0.20;;;0.20;;
7573;SDS011;3828;48.922;9.116;2023-06-04T13:34:25;0.47;;;0.47;;
7573;SDS011;3828;48.922;9.116;2023-06-04T13:36:52;0.20;;;0.20;;
7573;SDS011;3828;48.922;9.116;2023-06-04T13:39:21;0.10;;;0.10;;
7573;SDS011;3828;48.922;9.116;2023-06-04T13:41:47;0.13;;;0.13;;
7573;SDS011;3828;48.922;9.116;2023-06-04T13:44:15;0.20;;;0.20;;
7573;SDS011;3828;48.922;9.116;2023-06-04T13:46:42;0.20;;;0.20;;
7573;SDS011;3828;48.922;9.116;2023-06-04T13:49:08;0.10;;;0.10;;
7573;SDS011;3828;48.922;9.116;2023-06-04T13:51:35;0.20;;;0.20;;
7573;SDS011;3828;48.922;9.116;2023-06-04T13:54:02;0.50;;;0.50;;
7573;SDS011;3828;48.922;9.116;2023-06-04T13:56:30;0.50;;;0.50;;
7573;SDS011;3828;48.922;9.116;2023-06-04T13:58:57;0.30;;;0.30;;
7573;SDS011;3828;48.922;9.116;2023-06-04T14:01:24;0.10;;;0.10;;
7573;SDS011;3828;48.922;9.116;2023-06-04T14:03:51;0.10;;;0.10;;
7573;SDS011;3828;48.922;9.116;2023-06-04T14:06:18;0.10;;;0.10;;
7573;SDS011;3828;48.922;9.116;2023-06-04T14:08:45;0.20;;;0.20;;
7573;SDS011;3828;48.922;9.116;2023-06-04T14:11:12;0.20;;;0.20;;
7573;SDS011;3828;48.922;9.116;2023-06-04T14:13:40;0.23;;;0.23;;
7573;SDS011;3828;48.922;9.116;2023-06-04T14:16:10;0.20;;;0.20;;
7573;SDS011;3828;48.922;9.116;2023-06-04T14:18:37;0.73;;;0.73;;
7573;SDS011;3828;48.922;9.116;2023-06-04T14:21:04;0.50;;;0.50;;
7573;SDS011;3828;48.922;9.116;2023-06-04T14:23:31;0.30;;;0.30;;
7573;SDS011;3828;48.922;9.116;2023-06-04T14:25:58;0.47;;;0.47;;
7573;SDS011;3828;48.922;9.116;2023-06-04T14:28:25;0.30;;;0.30;;
7573;SDS011;3828;48.922;9.116;2023-06-04T14:30:53;0.30;;;0.30;;
7573;SDS011;3828;48.922;9.116;2023-06-04T14:33:20;0.60;;;0.60;;
7573;SDS011;3828;48.922;9.116;2023-06-04T14:35:47;0.20;;;0.20;;
7573;SDS011;3828;48.922;9.116;2023-06-04T14:38:14;0.50;;;0.50;;
7573;SDS011;3828;48.922;9.116;2023-06-04T14:40:41;0.20;;;0.20;;
7573;SDS011;3828;48.922;9.116;2023-06-04T14:43:08;0.70;;;0.70;;
7573;SDS011;3828;48.922;9.116;2023-06-04T14:45:36;0.20;;;0.20;;
7573;SDS011;3828;48.922;9.116;2023-06-04T14:48:06;0.20;;;0.20;;
7573;SDS011;3828;48.922;9.116;2023-06-04T14:50:32;0.50;;;0.50;;
7573;SDS011;3828;48.922;9.116;2023-06-04T14:52:59;0.30;;;0.30;;
7573;SDS011;3828;48.922;9.116;2023-06-04T14:55:26;0.20;;;0.20;;
7573;SDS011;3828;48.922;9.116;2023-06-04T14:57:53;0.23;;;0.23;;
7573;SDS011;3828;48.922;9.116;2023-06-04T15:00:20;0.40;;;0.40;;
7573;SDS011;3828;48.922;9.116;2023-06-04T15:02:47;0.20;;;0.20;;
7573;SDS011;3828;48.922;9.116;2023-06-04T15:05:15;0.20;;;0.20;;
7573;SDS011;3828;48.922;9.116;2023-06-04T15:07:42;0.20;;;0.20;;
7573;SDS011;3828;48.922;9.116;2023-06-04T15:10:09;0.20;;;0.20;;
7573;SDS011;3828;48.922;9.116;2023-06-04T15:12:36;0.40;;;0.40;;
7573;SDS011;3828;48.922;9.116;2023-06-04T15:15:04;0.40;;;0.40;;
7573;SDS011;3828;48.922;9.116;2023-06-04T15:17:33;0.20;;;0.20;;
7573;SDS011;3828;48.922;9.116;2023-06-04T15:20:00;0.10;;;0.10;;